sensor_id;sensor_type;location;lat;lon;timestamp;P1;durP1;ratioP1;P2;durP2;ratioP2
73487;SDS011;61721;42.206;25.320;2023-04-01T00:01:12;5.57;;;2.67;;
73487;SDS011;61721;42.206;25.320;2023-04-01T00:03:41;6.75;;;2.60;;
73487;SDS011;61721;42.206;25.320;2023-04-01T00:06:09;6.38;;;2.75;;
73487;SDS011;61721;42.206;25.320;2023-04-01T00:08:37;5.32;;;2.53;;
73487;SDS011;61721;42.206;25.320;2023-04-01T00:11:05;5.88;;;2.60;;
73487;SDS011;61721;42.206;25.320;2023-04-01T00:13:32;4.95;;;2.40;;
73487;SDS011;61721;42.206;25.320;2023-04-01T00:16:01;4.75;;;2.58;;
73487;SDS011;61721;42.206;25.320;2023-04-01T00:18:29;4.80;;;2.63;;
73487;SDS011;61721;42.206;25.320;2023-04-01T00:20:57;5.00;;;2.42;;
73487;SDS011;61721;42.206;25.320;2023-04-01T00:23:24;5.93;;;2.50;;
73487;SDS011;61721;42.206;25.320;2023-04-01T00:25:52;6.05;;;2.30;;
73487;SDS011;61721;42.206;25.320;2023-04-01T00:28:20;6.63;;;2.60;;
73487;SDS011;61721;42.206;25.320;2023-04-01T00:30:47;6.93;;;2.72;;
73487;SDS011;61721;42.206;25.320;2023-04-01T00:33:16;5.68;;;2.40;;
73487;SDS011;61721;42.206;25.320;2023-04-01T00:35:43;6.00;;;2.55;;
73487;SDS011;61721;42.206;25.320;2023-04-01T00:38:10;6.30;;;2.65;;
73487;SDS011;61721;42.206;25.320;2023-04-01T00:40:38;4.93;;;2.58;;
73487;SDS011;61721;42.206;25.320;2023-04-01T00:43:10;8.10;;;2.85;;
73487;SDS011;61721;42.206;25.320;2023-04-01T00:45:41;5.53;;;2.55;;
73487;SDS011;61721;42.206;25.320;2023-04-01T00:48:10;5.00;;;2.50;;
73487;SDS011;61721;42.206;25.320;2023-04-01T00:50:43;5.68;;;2.70;;
73487;SDS011;61721;42.206;25.320;2023-04-01T00:53:16;5.93;;;2.67;;
73487;SDS011;61721;42.206;25.320;2023-04-01T00:55:49;4.75;;;2.28;;
73487;SDS011;61721;42.206;25.320;2023-04-01T00:58:21;6.43;;;2.40;;
73487;SDS011;61721;42.206;25.320;2023-04-01T01:00:51;5.70;;;2.65;;
73487;SDS011;61721;42.206;25.320;2023-04-01T01:03:19;6.50;;;2.70;;
73487;SDS011;61721;42.206;25.320;2023-04-01T01:05:52;7.95;;;2.75;;
73487;SDS011;61721;42.206;25.320;2023-04-01T01:08:51;4.93;;;2.50;;
73487;SDS011;61721;42.206;25.320;2023-04-01T01:11:29;5.15;;;2.00;;
73487;SDS011;61721;42.206;25.320;2023-04-01T01:14:03;5.05;;;2.20;;
73487;SDS011;61721;42.206;25.320;2023-04-01T01:16:40;7.28;;;2.70;;
73487;SDS011;61721;42.206;25.320;2023-04-01T01:19:11;5.68;;;2.38;;
73487;SDS011;61721;42.206;25.320;2023-04-01T01:22:09;7.38;;;2.42;;
73487;SDS011;61721;42.206;25.320;2023-04-01T01:24:53;7.45;;;2.58;;
73487;SDS011;61721;42.206;25.320;2023-04-01T01:27:31;6.60;;;2.45;;
73487;SDS011;61721;42.206;25.320;2023-04-01T01:30:14;7.00;;;2.33;;
73487;SDS011;61721;42.206;25.320;2023-04-01T01:32:56;4.85;;;2.20;;
73487;SDS011;61721;42.206;25.320;2023-04-01T01:35:34;5.45;;;2.42;;
73487;SDS011;61721;42.206;25.320;2023-04-01T01:38:05;6.85;;;2.13;;
73487;SDS011;61721;42.206;25.320;2023-04-01T01:40:36;5.00;;;2.25;;
73487;SDS011;61721;42.206;25.320;2023-04-01T01:43:08;5.85;;;2.55;;
73487;SDS011;61721;42.206;25.320;2023-04-01T01:45:40;5.75;;;2.40;;
73487;SDS011;61721;42.206;25.320;2023-04-01T01:48:12;5.57;;;2.25;;
73487;SDS011;61721;42.206;25.320;2023-04-01T01:50:43;7.10;;;2.33;;
73487;SDS011;61721;42.206;25.320;2023-04-01T01:53:12;5.57;;;2.50;;
73487;SDS011;61721;42.206;25.320;2023-04-01T01:55:41;5.95;;;2.50;;
73487;SDS011;61721;42.206;25.320;2023-04-01T01:58:10;5.65;;;2.42;;
73487;SDS011;61721;42.206;25.320;2023-04-01T02:00:43;5.03;;;2.58;;
73487;SDS011;61721;42.206;25.320;2023-04-01T02:03:13;7.10;;;2.55;;
73487;SDS011;61721;42.206;25.320;2023-04-01T02:05:44;8.05;;;2.33;;
73487;SDS011;61721;42.206;25.320;2023-04-01T02:08:12;5.68;;;2.75;;
73487;SDS011;61721;42.206;25.320;2023-04-01T02:10:44;8.55;;;2.83;;
73487;SDS011;61721;42.206;25.320;2023-04-01T02:13:18;5.95;;;2.05;;
73487;SDS011;61721;42.206;25.320;2023-04-01T02:15:51;9.18;;;2.35;;
73487;SDS011;61721;42.206;25.320;2023-04-01T02:18:23;4.68;;;2.20;;
73487;SDS011;61721;42.206;25.320;2023-04-01T02:20:52;7.18;;;2.50;;
73487;SDS011;61721;42.206;25.320;2023-04-01T02:23:21;5.20;;;2.22;;
73487;SDS011;61721;42.206;25.320;2023-04-01T02:25:48;5.78;;;2.47;;
73487;SDS011;61721;42.206;25.320;2023-04-01T02:28:16;6.47;;;2.10;;
73487;SDS011;61721;42.206;25.320;2023-04-01T02:30:45;5.28;;;2.50;;
73487;SDS011;61721;42.206;25.320;2023-04-01T02:33:14;4.82;;;2.20;;
73487;SDS011;61721;42.206;25.320;2023-04-01T02:35:42;7.75;;;2.22;;
73487;SDS011;61721;42.206;25.320;2023-04-01T02:38:10;5.28;;;2.10;;
73487;SDS011;61721;42.206;25.320;2023-04-01T02:40:45;3.92;;;2.05;;
73487;SDS011;61721;42.206;25.320;2023-04-01T02:43:13;5.78;;;2.03;;
73487;SDS011;61721;42.206;25.320;2023-04-01T02:45:41;5.05;;;2.67;;
73487;SDS011;61721;42.206;25.320;2023-04-01T02:48:08;10.70;;;2.25;;
73487;SDS011;61721;42.206;25.320;2023-04-01T02:50:36;7.38;;;2.38;;
73487;SDS011;61721;42.206;25.320;2023-04-01T02:53:03;5.75;;;2.25;;
73487;SDS011;61721;42.206;25.320;2023-04-01T02:55:32;4.38;;;1.90;;
73487;SDS011;61721;42.206;25.320;2023-04-01T02:58:00;6.75;;;2.20;;
73487;SDS011;61721;42.206;25.320;2023-04-01T03:00:27;6.93;;;2.30;;
73487;SDS011;61721;42.206;25.320;2023-04-01T03:02:54;7.68;;;2.30;;
73487;SDS011;61721;42.206;25.320;2023-04-01T03:05:22;4.25;;;2.00;;
73487;SDS011;61721;42.206;25.320;2023-04-01T03:07:49;6.85;;;2.38;;
73487;SDS011;61721;42.206;25.320;2023-04-01T03:10:16;7.70;;;2.28;;
73487;SDS011;61721;42.206;25.320;2023-04-01T03:12:45;6.80;;;2.25;;
73487;SDS011;61721;42.206;25.320;2023-04-01T03:15:12;5.03;;;2.50;;
73487;SDS011;61721;42.206;25.320;2023-04-01T03:17:40;4.85;;;2.40;;
73487;SDS011;61721;42.206;25.320;2023-04-01T03:20:08;6.53;;;2.45;;
73487;SDS011;61721;42.206;25.320;2023-04-01T03:22:37;6.10;;;2.45;;
73487;SDS011;61721;42.206;25.320;2023-04-01T03:25:05;4.68;;;2.20;;
73487;SDS011;61721;42.206;25.320;2023-04-01T03:27:34;5.22;;;2.30;;
73487;SDS011;61721;42.206;25.320;2023-04-01T03:30:03;6.72;;;2.33;;
73487;SDS011;61721;42.206;25.320;2023-04-01T03:32:31;5.80;;;2.40;;
73487;SDS011;61721;42.206;25.320;2023-04-01T03:34:58;5.40;;;2.58;;
73487;SDS011;61721;42.206;25.320;2023-04-01T03:37:26;9.32;;;3.53;;
73487;SDS011;61721;42.206;25.320;2023-04-01T03:39:53;9.07;;;4.05;;
73487;SDS011;61721;42.206;25.320;2023-04-01T03:42:20;6.45;;;3.42;;
73487;SDS011;61721;42.206;25.320;2023-04-01T03:44:48;6.18;;;2.50;;
73487;SDS011;61721;42.206;25.320;2023-04-01T03:47:16;6.63;;;2.72;;
73487;SDS011;61721;42.206;25.320;2023-04-01T03:49:43;5.28;;;2.60;;
73487;SDS011;61721;42.206;25.320;2023-04-01T03:52:11;7.65;;;2.25;;
73487;SDS011;61721;42.206;25.320;2023-04-01T03:54:38;4.65;;;2.35;;
73487;SDS011;61721;42.206;25.320;2023-04-01T03:57:05;4.68;;;2.10;;
73487;SDS011;61721;42.206;25.320;2023-04-01T03:59:32;7.28;;;3.38;;
73487;SDS011;61721;42.206;25.320;2023-04-01T04:02:00;6.25;;;1.90;;
73487;SDS011;61721;42.206;25.320;2023-04-01T04:04:29;5.32;;;2.20;;
73487;SDS011;61721;42.206;25.320;2023-04-01T04:06:56;8.68;;;2.30;;
73487;SDS011;61721;42.206;25.320;2023-04-01T04:09:23;6.35;;;2.40;;
73487;SDS011;61721;42.206;25.320;2023-04-01T04:11:50;15.93;;;9.77;;
73487;SDS011;61721;42.206;25.320;2023-04-01T04:14:18;16.45;;;12.20;;
73487;SDS011;61721;42.206;25.320;2023-04-01T04:16:45;16.00;;;11.43;;
73487;SDS011;61721;42.206;25.320;2023-04-01T04:19:12;5.97;;;3.58;;
73487;SDS011;61721;42.206;25.320;2023-04-01T04:21:41;8.52;;;3.72;;
73487;SDS011;61721;42.206;25.320;2023-04-01T04:24:08;6.75;;;3.33;;
73487;SDS011;61721;42.206;25.320;2023-04-01T04:26:35;7.97;;;3.03;;
73487;SDS011;61721;42.206;25.320;2023-04-01T04:29:03;5.90;;;3.05;;
73487;SDS011;61721;42.206;25.320;2023-04-01T04:31:30;7.55;;;3.30;;
73487;SDS011;61721;42.206;25.320;2023-04-01T04:33:58;8.88;;;3.50;;
73487;SDS011;61721;42.206;25.320;2023-04-01T04:36:26;7.43;;;3.42;;
73487;SDS011;61721;42.206;25.320;2023-04-01T04:38:55;7.63;;;3.20;;
73487;SDS011;61721;42.206;25.320;2023-04-01T04:41:23;6.18;;;3.15;;
73487;SDS011;61721;42.206;25.320;2023-04-01T04:43:51;7.55;;;3.50;;
73487;SDS011;61721;42.206;25.320;2023-04-01T04:46:19;7.72;;;3.80;;
73487;SDS011;61721;42.206;25.320;2023-04-01T04:48:47;7.93;;;3.70;;
73487;SDS011;61721;42.206;25.320;2023-04-01T04:51:14;9.43;;;5.35;;
73487;SDS011;61721;42.206;25.320;2023-04-01T04:53:42;13.63;;;6.45;;
73487;SDS011;61721;42.206;25.320;2023-04-01T04:56:11;11.45;;;5.45;;
73487;SDS011;61721;42.206;25.320;2023-04-01T04:58:38;13.52;;;5.38;;
73487;SDS011;61721;42.206;25.320;2023-04-01T05:01:07;12.13;;;5.40;;
73487;SDS011;61721;42.206;25.320;2023-04-01T05:03:35;8.80;;;4.68;;
73487;SDS011;61721;42.206;25.320;2023-04-01T05:06:03;11.30;;;4.57;;
73487;SDS011;61721;42.206;25.320;2023-04-01T05:08:31;8.75;;;4.65;;
73487;SDS011;61721;42.206;25.320;2023-04-01T05:10:59;11.40;;;6.07;;
73487;SDS011;61721;42.206;25.320;2023-04-01T05:13:28;13.27;;;5.90;;
73487;SDS011;61721;42.206;25.320;2023-04-01T05:15:55;10.43;;;4.45;;
73487;SDS011;61721;42.206;25.320;2023-04-01T05:18:22;11.20;;;4.40;;
73487;SDS011;61721;42.206;25.320;2023-04-01T05:20:50;8.90;;;4.38;;
73487;SDS011;61721;42.206;25.320;2023-04-01T05:23:19;9.65;;;4.25;;
73487;SDS011;61721;42.206;25.320;2023-04-01T05:25:48;28.90;;;6.30;;
73487;SDS011;61721;42.206;25.320;2023-04-01T05:28:16;22.45;;;9.45;;
73487;SDS011;61721;42.206;25.320;2023-04-01T05:30:45;16.48;;;10.38;;
73487;SDS011;61721;42.206;25.320;2023-04-01T05:33:12;16.23;;;7.90;;
73487;SDS011;61721;42.206;25.320;2023-04-01T05:35:40;12.45;;;6.53;;
73487;SDS011;61721;42.206;25.320;2023-04-01T05:38:07;9.40;;;5.95;;
73487;SDS011;61721;42.206;25.320;2023-04-01T05:40:34;14.18;;;6.35;;
73487;SDS011;61721;42.206;25.320;2023-04-01T05:43:01;17.02;;;6.03;;
73487;SDS011;61721;42.206;25.320;2023-04-01T05:45:29;12.13;;;6.70;;
73487;SDS011;61721;42.206;25.320;2023-04-01T05:47:58;11.07;;;5.57;;
73487;SDS011;61721;42.206;25.320;2023-04-01T05:50:25;18.95;;;5.53;;
73487;SDS011;61721;42.206;25.320;2023-04-01T05:52:53;12.93;;;6.50;;
73487;SDS011;61721;42.206;25.320;2023-04-01T05:55:20;12.40;;;5.05;;
73487;SDS011;61721;42.206;25.320;2023-04-01T05:57:47;8.07;;;4.03;;
73487;SDS011;61721;42.206;25.320;2023-04-01T06:00:15;9.55;;;3.72;;
73487;SDS011;61721;42.206;25.320;2023-04-01T06:05:15;5.63;;;2.47;;
73487;SDS011;61721;42.206;25.320;2023-04-01T06:07:44;10.27;;;3.30;;
73487;SDS011;61721;42.206;25.320;2023-04-01T06:10:13;7.32;;;3.42;;
73487;SDS011;61721;42.206;25.320;2023-04-01T06:12:56;8.80;;;3.20;;
73487;SDS011;61721;42.206;25.320;2023-04-01T06:15:33;7.65;;;2.97;;
73487;SDS011;61721;42.206;25.320;2023-04-01T06:21:24;7.22;;;2.72;;
73487;SDS011;61721;42.206;25.320;2023-04-01T06:24:16;8.60;;;3.75;;
73487;SDS011;61721;42.206;25.320;2023-04-01T06:26:59;6.80;;;2.80;;
73487;SDS011;61721;42.206;25.320;2023-04-01T06:29:47;6.55;;;4.00;;
73487;SDS011;61721;42.206;25.320;2023-04-01T06:35:21;6.90;;;3.53;;
73487;SDS011;61721;42.206;25.320;2023-04-01T06:38:15;9.05;;;3.60;;
73487;SDS011;61721;42.206;25.320;2023-04-01T06:40:55;8.45;;;3.92;;
73487;SDS011;61721;42.206;25.320;2023-04-01T06:43:35;8.20;;;3.10;;
73487;SDS011;61721;42.206;25.320;2023-04-01T06:46:15;7.45;;;3.63;;
73487;SDS011;61721;42.206;25.320;2023-04-01T06:48:54;10.95;;;3.58;;
73487;SDS011;61721;42.206;25.320;2023-04-01T06:51:34;9.18;;;3.35;;
73487;SDS011;61721;42.206;25.320;2023-04-01T06:54:11;8.30;;;3.53;;
73487;SDS011;61721;42.206;25.320;2023-04-01T06:56:43;8.00;;;3.50;;
73487;SDS011;61721;42.206;25.320;2023-04-01T06:59:15;7.18;;;3.42;;
73487;SDS011;61721;42.206;25.320;2023-04-01T07:01:45;15.25;;;4.63;;
73487;SDS011;61721;42.206;25.320;2023-04-01T07:04:15;7.10;;;3.55;;
73487;SDS011;61721;42.206;25.320;2023-04-01T07:06:47;13.10;;;3.83;;
73487;SDS011;61721;42.206;25.320;2023-04-01T07:09:20;6.18;;;3.17;;
73487;SDS011;61721;42.206;25.320;2023-04-01T07:11:53;12.55;;;4.25;;
73487;SDS011;61721;42.206;25.320;2023-04-01T07:14:25;10.38;;;4.15;;
73487;SDS011;61721;42.206;25.320;2023-04-01T07:16:58;19.60;;;6.15;;
73487;SDS011;61721;42.206;25.320;2023-04-01T07:19:33;8.43;;;3.53;;
73487;SDS011;61721;42.206;25.320;2023-04-01T07:22:10;8.70;;;3.70;;
73487;SDS011;61721;42.206;25.320;2023-04-01T07:24:48;7.80;;;3.28;;
73487;SDS011;61721;42.206;25.320;2023-04-01T07:27:16;7.80;;;3.30;;
73487;SDS011;61721;42.206;25.320;2023-04-01T07:29:43;7.30;;;2.97;;
73487;SDS011;61721;42.206;25.320;2023-04-01T07:32:13;8.05;;;3.17;;
73487;SDS011;61721;42.206;25.320;2023-04-01T07:34:52;8.70;;;2.95;;
73487;SDS011;61721;42.206;25.320;2023-04-01T07:37:28;5.80;;;2.35;;
73487;SDS011;61721;42.206;25.320;2023-04-01T07:40:06;10.23;;;2.60;;
73487;SDS011;61721;42.206;25.320;2023-04-01T07:42:48;5.05;;;2.42;;
73487;SDS011;61721;42.206;25.320;2023-04-01T07:45:29;6.57;;;2.67;;
73487;SDS011;61721;42.206;25.320;2023-04-01T07:48:05;5.38;;;2.45;;
73487;SDS011;61721;42.206;25.320;2023-04-01T07:50:41;6.57;;;2.92;;
73487;SDS011;61721;42.206;25.320;2023-04-01T07:53:17;5.72;;;2.75;;
73487;SDS011;61721;42.206;25.320;2023-04-01T07:55:54;5.95;;;2.38;;
73487;SDS011;61721;42.206;25.320;2023-04-01T07:58:29;6.15;;;2.60;;
73487;SDS011;61721;42.206;25.320;2023-04-01T08:01:04;6.75;;;2.50;;
73487;SDS011;61721;42.206;25.320;2023-04-01T08:03:42;5.65;;;2.50;;
73487;SDS011;61721;42.206;25.320;2023-04-01T08:06:24;9.02;;;2.80;;
73487;SDS011;61721;42.206;25.320;2023-04-01T08:08:57;7.93;;;2.55;;
73487;SDS011;61721;42.206;25.320;2023-04-01T08:11:36;6.72;;;2.40;;
73487;SDS011;61721;42.206;25.320;2023-04-01T08:14:17;4.85;;;2.33;;
73487;SDS011;61721;42.206;25.320;2023-04-01T08:16:54;4.35;;;2.22;;
73487;SDS011;61721;42.206;25.320;2023-04-01T08:19:30;5.28;;;2.25;;
73487;SDS011;61721;42.206;25.320;2023-04-01T08:22:13;5.03;;;2.10;;
73487;SDS011;61721;42.206;25.320;2023-04-01T08:24:45;5.82;;;2.30;;
73487;SDS011;61721;42.206;25.320;2023-04-01T08:27:17;10.50;;;2.95;;
73487;SDS011;61721;42.206;25.320;2023-04-01T08:29:49;6.47;;;2.38;;
73487;SDS011;61721;42.206;25.320;2023-04-01T08:32:24;7.07;;;2.35;;
73487;SDS011;61721;42.206;25.320;2023-04-01T08:34:59;7.18;;;2.97;;
73487;SDS011;61721;42.206;25.320;2023-04-01T08:37:35;7.68;;;2.55;;
73487;SDS011;61721;42.206;25.320;2023-04-01T08:40:14;7.10;;;2.80;;
73487;SDS011;61721;42.206;25.320;2023-04-01T08:43:05;5.93;;;2.88;;
73487;SDS011;61721;42.206;25.320;2023-04-01T08:48:41;6.32;;;2.60;;
73487;SDS011;61721;42.206;25.320;2023-04-01T08:54:25;8.32;;;2.20;;
73487;SDS011;61721;42.206;25.320;2023-04-01T08:57:07;8.52;;;3.03;;
73487;SDS011;61721;42.206;25.320;2023-04-01T08:59:59;5.88;;;2.30;;
73487;SDS011;61721;42.206;25.320;2023-04-01T09:03:07;11.32;;;2.60;;
73487;SDS011;61721;42.206;25.320;2023-04-01T09:08:52;8.90;;;3.45;;
73487;SDS011;61721;42.206;25.320;2023-04-01T09:11:40;7.38;;;2.40;;
73487;SDS011;61721;42.206;25.320;2023-04-01T09:14:23;6.50;;;2.30;;
73487;SDS011;61721;42.206;25.320;2023-04-01T09:17:12;7.97;;;2.30;;
73487;SDS011;61721;42.206;25.320;2023-04-01T09:23:24;7.35;;;2.53;;
73487;SDS011;61721;42.206;25.320;2023-04-01T09:26:05;10.30;;;2.85;;
73487;SDS011;61721;42.206;25.320;2023-04-01T09:31:25;8.60;;;2.70;;
73487;SDS011;61721;42.206;25.320;2023-04-01T09:40:37;11.23;;;3.47;;
73487;SDS011;61721;42.206;25.320;2023-04-01T09:43:25;9.75;;;2.90;;
73487;SDS011;61721;42.206;25.320;2023-04-01T09:51:49;9.35;;;3.20;;
73487;SDS011;61721;42.206;25.320;2023-04-01T09:54:30;9.45;;;2.97;;
73487;SDS011;61721;42.206;25.320;2023-04-01T09:57:22;10.95;;;3.00;;
73487;SDS011;61721;42.206;25.320;2023-04-01T10:00:30;9.75;;;2.97;;
73487;SDS011;61721;42.206;25.320;2023-04-01T10:03:30;9.75;;;3.33;;
73487;SDS011;61721;42.206;25.320;2023-04-01T10:06:36;11.10;;;3.05;;
73487;SDS011;61721;42.206;25.320;2023-04-01T10:12:57;9.52;;;2.75;;
73487;SDS011;61721;42.206;25.320;2023-04-01T10:16:17;7.75;;;2.40;;
73487;SDS011;61721;42.206;25.320;2023-04-01T10:21:59;8.40;;;2.63;;
73487;SDS011;61721;42.206;25.320;2023-04-01T10:31:21;9.20;;;2.58;;
73487;SDS011;61721;42.206;25.320;2023-04-01T10:37:13;8.68;;;2.63;;
73487;SDS011;61721;42.206;25.320;2023-04-01T10:40:04;8.32;;;2.10;;
73487;SDS011;61721;42.206;25.320;2023-04-01T10:43:06;9.13;;;2.70;;
73487;SDS011;61721;42.206;25.320;2023-04-01T10:52:20;7.43;;;2.85;;
73487;SDS011;61721;42.206;25.320;2023-04-01T10:55:04;11.35;;;5.03;;
73487;SDS011;61721;42.206;25.320;2023-04-01T10:58:02;11.32;;;2.85;;
73487;SDS011;61721;42.206;25.320;2023-04-01T11:01:02;9.93;;;2.45;;
73487;SDS011;61721;42.206;25.320;2023-04-01T11:13:01;8.50;;;2.10;;
73487;SDS011;61721;42.206;25.320;2023-04-01T11:19:08;6.15;;;1.65;;
73487;SDS011;61721;42.206;25.320;2023-04-01T11:34:16;8.80;;;2.10;;
73487;SDS011;61721;42.206;25.320;2023-04-01T11:36:57;8.63;;;2.50;;
73487;SDS011;61721;42.206;25.320;2023-04-01T11:39:37;8.52;;;1.80;;
73487;SDS011;61721;42.206;25.320;2023-04-01T11:42:19;5.13;;;1.80;;
73487;SDS011;61721;42.206;25.320;2023-04-01T11:45:00;7.88;;;2.65;;
73487;SDS011;61721;42.206;25.320;2023-04-01T11:47:45;7.22;;;2.17;;
73487;SDS011;61721;42.206;25.320;2023-04-01T11:50:27;8.18;;;2.20;;
73487;SDS011;61721;42.206;25.320;2023-04-01T11:53:07;10.43;;;2.17;;
73487;SDS011;61721;42.206;25.320;2023-04-01T11:55:47;9.13;;;2.15;;
73487;SDS011;61721;42.206;25.320;2023-04-01T11:58:26;10.70;;;2.25;;
73487;SDS011;61721;42.206;25.320;2023-04-01T12:01:19;7.90;;;1.73;;
73487;SDS011;61721;42.206;25.320;2023-04-01T12:04:00;7.68;;;1.65;;
73487;SDS011;61721;42.206;25.320;2023-04-01T12:06:51;10.15;;;2.20;;
73487;SDS011;61721;42.206;25.320;2023-04-01T12:09:25;8.57;;;2.05;;
73487;SDS011;61721;42.206;25.320;2023-04-01T12:12:10;9.88;;;1.92;;
73487;SDS011;61721;42.206;25.320;2023-04-01T12:14:47;9.43;;;1.85;;
73487;SDS011;61721;42.206;25.320;2023-04-01T12:17:28;7.65;;;1.70;;
73487;SDS011;61721;42.206;25.320;2023-04-01T12:20:13;12.20;;;2.58;;
73487;SDS011;61721;42.206;25.320;2023-04-01T12:22:54;6.57;;;2.20;;
73487;SDS011;61721;42.206;25.320;2023-04-01T12:25:38;8.55;;;2.33;;
73487;SDS011;61721;42.206;25.320;2023-04-01T12:28:25;7.65;;;2.15;;
73487;SDS011;61721;42.206;25.320;2023-04-01T12:31:07;8.23;;;1.70;;
73487;SDS011;61721;42.206;25.320;2023-04-01T12:33:54;9.55;;;2.08;;
73487;SDS011;61721;42.206;25.320;2023-04-01T12:36:51;8.38;;;1.75;;
73487;SDS011;61721;42.206;25.320;2023-04-01T12:39:33;13.07;;;3.08;;
73487;SDS011;61721;42.206;25.320;2023-04-01T12:42:18;13.23;;;2.40;;
73487;SDS011;61721;42.206;25.320;2023-04-01T12:45:02;12.90;;;2.17;;
73487;SDS011;61721;42.206;25.320;2023-04-01T12:48:06;8.18;;;1.90;;
73487;SDS011;61721;42.206;25.320;2023-04-01T12:53:58;12.60;;;3.00;;
73487;SDS011;61721;42.206;25.320;2023-04-01T12:56:53;9.68;;;2.15;;
73487;SDS011;61721;42.206;25.320;2023-04-01T12:59:38;9.25;;;2.10;;
73487;SDS011;61721;42.206;25.320;2023-04-01T13:02:20;8.40;;;2.83;;
73487;SDS011;61721;42.206;25.320;2023-04-01T13:04:57;10.70;;;2.42;;
73487;SDS011;61721;42.206;25.320;2023-04-01T13:13:48;9.57;;;1.85;;
73487;SDS011;61721;42.206;25.320;2023-04-01T13:16:31;7.75;;;2.08;;
73487;SDS011;61721;42.206;25.320;2023-04-01T13:19:05;8.70;;;2.70;;
73487;SDS011;61721;42.206;25.320;2023-04-01T13:21:39;9.35;;;2.40;;
73487;SDS011;61721;42.206;25.320;2023-04-01T13:24:22;7.30;;;2.13;;
73487;SDS011;61721;42.206;25.320;2023-04-01T13:26:58;8.43;;;2.05;;
73487;SDS011;61721;42.206;25.320;2023-04-01T13:29:33;7.90;;;2.05;;
73487;SDS011;61721;42.206;25.320;2023-04-01T13:32:09;6.53;;;1.75;;
73487;SDS011;61721;42.206;25.320;2023-04-01T13:34:50;8.02;;;1.88;;
73487;SDS011;61721;42.206;25.320;2023-04-01T13:37:30;7.43;;;1.98;;
73487;SDS011;61721;42.206;25.320;2023-04-01T13:40:19;7.97;;;2.13;;
73487;SDS011;61721;42.206;25.320;2023-04-01T13:42:56;9.23;;;3.13;;
73487;SDS011;61721;42.206;25.320;2023-04-01T13:45:27;6.55;;;2.10;;
73487;SDS011;61721;42.206;25.320;2023-04-01T13:57:21;12.77;;;3.08;;
73487;SDS011;61721;42.206;25.320;2023-04-01T14:00:03;7.95;;;3.10;;
73487;SDS011;61721;42.206;25.320;2023-04-01T14:02:59;7.90;;;3.30;;
73487;SDS011;61721;42.206;25.320;2023-04-01T14:05:48;8.48;;;2.70;;
73487;SDS011;61721;42.206;25.320;2023-04-01T14:08:32;19.35;;;3.55;;
73487;SDS011;61721;42.206;25.320;2023-04-01T14:11:18;44.33;;;5.45;;
73487;SDS011;61721;42.206;25.320;2023-04-01T14:13:56;21.33;;;4.25;;
73487;SDS011;61721;42.206;25.320;2023-04-01T14:16:40;22.70;;;3.67;;
73487;SDS011;61721;42.206;25.320;2023-04-01T14:19:25;19.38;;;3.38;;
73487;SDS011;61721;42.206;25.320;2023-04-01T14:22:04;12.60;;;3.30;;
73487;SDS011;61721;42.206;25.320;2023-04-01T14:24:46;17.23;;;3.60;;
73487;SDS011;61721;42.206;25.320;2023-04-01T14:33:24;6.85;;;2.63;;
73487;SDS011;61721;42.206;25.320;2023-04-01T14:36:04;7.88;;;2.67;;
73487;SDS011;61721;42.206;25.320;2023-04-01T14:38:54;11.88;;;2.53;;
73487;SDS011;61721;42.206;25.320;2023-04-01T14:41:38;5.55;;;2.17;;
73487;SDS011;61721;42.206;25.320;2023-04-01T14:47:26;8.02;;;3.05;;
73487;SDS011;61721;42.206;25.320;2023-04-01T14:50:05;9.85;;;2.85;;
73487;SDS011;61721;42.206;25.320;2023-04-01T14:52:36;5.47;;;2.38;;
73487;SDS011;61721;42.206;25.320;2023-04-01T14:55:15;6.38;;;2.47;;
73487;SDS011;61721;42.206;25.320;2023-04-01T14:57:57;5.95;;;2.95;;
73487;SDS011;61721;42.206;25.320;2023-04-01T15:00:26;11.82;;;2.53;;
73487;SDS011;61721;42.206;25.320;2023-04-01T15:03:02;6.03;;;2.40;;
73487;SDS011;61721;42.206;25.320;2023-04-01T15:05:42;6.93;;;1.92;;
73487;SDS011;61721;42.206;25.320;2023-04-01T15:08:21;4.32;;;1.90;;
73487;SDS011;61721;42.206;25.320;2023-04-01T15:13:51;7.15;;;1.80;;
73487;SDS011;61721;42.206;25.320;2023-04-01T15:16:39;5.15;;;1.52;;
73487;SDS011;61721;42.206;25.320;2023-04-01T15:19:18;3.40;;;1.30;;
73487;SDS011;61721;42.206;25.320;2023-04-01T15:21:54;3.45;;;1.40;;
73487;SDS011;61721;42.206;25.320;2023-04-01T15:24:37;2.90;;;1.00;;
73487;SDS011;61721;42.206;25.320;2023-04-01T15:27:19;2.40;;;1.10;;
73487;SDS011;61721;42.206;25.320;2023-04-01T15:30:02;2.60;;;1.10;;
73487;SDS011;61721;42.206;25.320;2023-04-01T15:32:52;4.30;;;1.38;;
73487;SDS011;61721;42.206;25.320;2023-04-01T15:35:34;4.07;;;1.30;;
73487;SDS011;61721;42.206;25.320;2023-04-01T15:38:10;4.55;;;1.70;;
73487;SDS011;61721;42.206;25.320;2023-04-01T15:40:51;4.20;;;1.80;;
73487;SDS011;61721;42.206;25.320;2023-04-01T15:43:27;4.70;;;2.08;;
73487;SDS011;61721;42.206;25.320;2023-04-01T15:49:15;4.38;;;1.70;;
73487;SDS011;61721;42.206;25.320;2023-04-01T15:52:00;2.45;;;1.00;;
73487;SDS011;61721;42.206;25.320;2023-04-01T15:54:40;2.80;;;1.30;;
73487;SDS011;61721;42.206;25.320;2023-04-01T15:57:24;3.03;;;1.30;;
73487;SDS011;61721;42.206;25.320;2023-04-01T16:00:02;4.72;;;2.40;;
73487;SDS011;61721;42.206;25.320;2023-04-01T16:02:51;4.03;;;1.55;;
73487;SDS011;61721;42.206;25.320;2023-04-01T16:05:37;3.42;;;1.42;;
73487;SDS011;61721;42.206;25.320;2023-04-01T16:08:23;2.90;;;1.40;;
73487;SDS011;61721;42.206;25.320;2023-04-01T16:11:14;3.85;;;1.60;;
73487;SDS011;61721;42.206;25.320;2023-04-01T16:13:51;4.18;;;1.40;;
73487;SDS011;61721;42.206;25.320;2023-04-01T16:16:31;3.25;;;1.40;;
73487;SDS011;61721;42.206;25.320;2023-04-01T16:22:01;2.72;;;1.20;;
73487;SDS011;61721;42.206;25.320;2023-04-01T16:24:37;3.70;;;1.65;;
73487;SDS011;61721;42.206;25.320;2023-04-01T16:27:09;5.18;;;1.33;;
73487;SDS011;61721;42.206;25.320;2023-04-01T16:29:43;3.30;;;1.40;;
73487;SDS011;61721;42.206;25.320;2023-04-01T16:32:18;5.00;;;1.73;;
73487;SDS011;61721;42.206;25.320;2023-04-01T16:34:58;4.97;;;2.00;;
73487;SDS011;61721;42.206;25.320;2023-04-01T16:37:39;4.53;;;1.90;;
73487;SDS011;61721;42.206;25.320;2023-04-01T16:40:16;6.32;;;2.40;;
73487;SDS011;61721;42.206;25.320;2023-04-01T16:42:52;5.43;;;1.92;;
73487;SDS011;61721;42.206;25.320;2023-04-01T16:45:28;4.70;;;1.83;;
73487;SDS011;61721;42.206;25.320;2023-04-01T16:48:06;4.60;;;1.65;;
73487;SDS011;61721;42.206;25.320;2023-04-01T16:50:42;7.05;;;1.73;;
73487;SDS011;61721;42.206;25.320;2023-04-01T16:53:17;4.03;;;1.77;;
73487;SDS011;61721;42.206;25.320;2023-04-01T16:55:50;6.88;;;2.00;;
73487;SDS011;61721;42.206;25.320;2023-04-01T16:58:26;5.35;;;1.83;;
73487;SDS011;61721;42.206;25.320;2023-04-01T17:01:00;6.43;;;1.95;;
73487;SDS011;61721;42.206;25.320;2023-04-01T17:03:33;5.85;;;1.83;;
73487;SDS011;61721;42.206;25.320;2023-04-01T17:09:21;3.38;;;1.52;;
73487;SDS011;61721;42.206;25.320;2023-04-01T17:12:12;3.92;;;1.50;;
73487;SDS011;61721;42.206;25.320;2023-04-01T17:14:46;4.35;;;2.00;;
73487;SDS011;61721;42.206;25.320;2023-04-01T17:17:23;5.05;;;1.92;;
73487;SDS011;61721;42.206;25.320;2023-04-01T17:20:07;8.50;;;1.95;;
73487;SDS011;61721;42.206;25.320;2023-04-01T17:22:43;6.97;;;2.15;;
73487;SDS011;61721;42.206;25.320;2023-04-01T17:25:36;10.85;;;4.60;;
73487;SDS011;61721;42.206;25.320;2023-04-01T17:28:14;9.07;;;3.60;;
73487;SDS011;61721;42.206;25.320;2023-04-01T17:30:52;8.63;;;3.92;;